createdAt,value
2022-10-06T00:00:07.835Z,72.65
2022-10-06T00:02:36.315Z,72.51
2022-10-06T00:05:03.159Z,72.53
2022-10-06T00:07:29.850Z,71.88
2022-10-06T00:09:56.498Z,72.65
2022-10-06T00:12:23.140Z,73.02
2022-10-06T00:14:49.803Z,72.83
2022-10-06T00:17:16.695Z,72.86
2022-10-06T00:19:43.459Z,72.93
2022-10-06T00:22:10.134Z,72.91
2022-10-06T00:24:36.805Z,73.46
2022-10-06T00:27:03.468Z,74.19
2022-10-06T00:29:30.108Z,74.15
2022-10-06T00:31:56.864Z,74.76
2022-10-06T00:34:23.633Z,74.15
2022-10-06T00:36:50.329Z,73.74
2022-10-06T00:39:17.013Z,73.84
2022-10-06T00:41:43.707Z,74.52
2022-10-06T00:44:10.365Z,74.68
2022-10-06T00:46:40.761Z,74.62
2022-10-06T00:49:21.451Z,74.31
2022-10-06T00:51:49.834Z,74.83
2022-10-06T00:54:17.774Z,74.64
2022-10-06T00:56:44.660Z,74.63
2022-10-06T00:59:13.412Z,74.68
2022-10-06T01:01:42.793Z,74.89
2022-10-06T01:04:10.792Z,74.57
2022-10-06T01:06:46.948Z,74.75
2022-10-06T01:09:15.601Z,74.05
2022-10-06T01:11:42.669Z,73.89
2022-10-06T01:14:09.378Z,73.95
2022-10-06T01:16:38.148Z,74.04
2022-10-06T01:19:06.747Z,73.98
2022-10-06T01:21:39.161Z,73.19
2022-10-06T01:24:08.098Z,73.74
2022-10-06T01:26:36.839Z,73.75
2022-10-06T01:29:03.631Z,73.14
2022-10-06T01:31:31.259Z,72.92
2022-10-06T01:33:58.909Z,73.31
2022-10-06T01:36:25.818Z,73.06
2022-10-06T01:38:52.562Z,72.96
2022-10-06T01:41:19.783Z,73.03
2022-10-06T01:43:46.673Z,73.50
2022-10-06T01:46:13.520Z,73.29
2022-10-06T01:48:41.021Z,72.51
2022-10-06T01:51:13.889Z,72.65
2022-10-06T01:53:41.101Z,72.08
2022-10-06T01:56:07.983Z,72.33
2022-10-06T01:58:35.292Z,72.36
2022-10-06T02:01:07.440Z,72.97
2022-10-06T02:03:36.536Z,72.35
2022-10-06T02:06:03.341Z,72.38
2022-10-06T02:08:31.300Z,72.28
2022-10-06T02:10:59.972Z,72.26
2022-10-06T02:13:30.237Z,71.42
2022-10-06T02:16:00.039Z,72.07
2022-10-06T02:18:27.389Z,71.42
2022-10-06T02:20:54.696Z,71.53
2022-10-06T02:23:21.361Z,71.45
2022-10-06T02:25:48.105Z,71.65
2022-10-06T02:28:16.967Z,72.15
2022-10-06T02:30:44.387Z,71.59
2022-10-06T02:33:11.192Z,71.87
2022-10-06T02:35:37.896Z,71.94
2022-10-06T02:38:04.600Z,71.91
2022-10-06T02:40:31.409Z,71.88
2022-10-06T02:42:58.397Z,72.08
2022-10-06T02:45:25.494Z,72.99
2022-10-06T02:47:54.676Z,72.38
2022-10-06T02:50:21.357Z,73.14
2022-10-06T02:52:48.084Z,72.90
2022-10-06T02:55:15.537Z,73.02
2022-10-06T02:57:42.426Z,73.63
2022-10-06T03:00:10.843Z,74.02
2022-10-06T03:02:37.871Z,74.38
2022-10-06T03:05:04.932Z,74.25
2022-10-06T03:07:31.707Z,75.16
2022-10-06T03:09:58.378Z,74.55
2022-10-06T03:12:26.932Z,73.49
2022-10-06T03:14:53.592Z,73.59
2022-10-06T03:17:20.905Z,73.32
2022-10-06T03:19:57.089Z,73.16
2022-10-06T03:22:24.830Z,72.94
2022-10-06T03:24:54.497Z,73.16
2022-10-06T03:27:21.699Z,73.20
2022-10-06T03:29:49.601Z,72.48
2022-10-06T03:32:16.480Z,73.87
2022-10-06T03:34:43.964Z,75.26
2022-10-06T03:37:13.409Z,75.80
2022-10-06T03:39:40.460Z,76.80
2022-10-06T03:42:07.219Z,76.78
2022-10-06T03:44:35.220Z,77.72
2022-10-06T03:47:02.692Z,78.50
2022-10-06T03:49:30.508Z,79.39
2022-10-06T03:51:57.284Z,79.70
2022-10-06T03:54:27.872Z,79.42
2022-10-06T03:56:55.395Z,78.90
2022-10-06T03:59:22.114Z,79.00
2022-10-06T04:01:50.358Z,79.42
2022-10-06T04:04:25.055Z,78.97
2022-10-06T04:06:57.616Z,79.00
2022-10-06T04:09:24.338Z,78.81
2022-10-06T04:11:52.626Z,78.67
2022-10-06T04:14:20.312Z,78.46
2022-10-06T04:16:49.044Z,77.82
2022-10-06T04:19:20.898Z,77.57
2022-10-06T04:21:52.992Z,77.31
2022-10-06T04:24:29.087Z,76.33
2022-10-06T04:27:16.899Z,75.26
2022-10-06T04:29:48.332Z,75.17
2022-10-06T04:32:15.959Z,74.31
2022-10-06T04:34:42.679Z,74.25
2022-10-06T04:37:10.503Z,73.74
2022-10-06T04:39:38.405Z,73.05
2022-10-06T04:42:06.916Z,72.99
2022-10-06T04:44:33.665Z,73.01
2022-10-06T04:47:02.236Z,72.95
2022-10-06T04:49:28.994Z,71.91
2022-10-06T04:51:56.555Z,71.23
2022-10-06T04:54:23.567Z,71.22
2022-10-06T04:56:54.841Z,70.64
2022-10-06T04:59:43.858Z,70.80
2022-10-06T05:02:12.135Z,70.75
2022-10-06T05:04:39.759Z,70.57
2022-10-06T05:07:07.532Z,70.57
2022-10-06T05:09:34.253Z,69.30
2022-10-06T05:12:02.255Z,69.26
2022-10-06T05:14:28.985Z,68.21
2022-10-06T05:16:55.924Z,67.78
2022-10-06T05:19:22.642Z,68.09
2022-10-06T05:21:49.357Z,67.90
2022-10-06T05:24:20.238Z,67.38
2022-10-06T05:26:49.319Z,67.30
2022-10-06T05:29:16.605Z,66.75
2022-10-06T05:31:45.025Z,66.94
2022-10-06T05:34:13.640Z,66.66
2022-10-06T05:36:40.550Z,66.14
2022-10-06T05:39:08.637Z,65.93
2022-10-06T05:41:41.660Z,65.55
2022-10-06T05:44:10.973Z,65.41
2022-10-06T05:46:39.648Z,65.36
2022-10-06T05:49:10.616Z,65.52
2022-10-06T05:51:42.066Z,65.62
2022-10-06T05:54:22.787Z,65.14
2022-10-06T05:56:50.413Z,64.99
2022-10-06T05:59:17.177Z,65.22
2022-10-06T06:01:44.396Z,64.44
2022-10-06T06:04:21.979Z,64.58
2022-10-06T06:06:52.578Z,64.62
2022-10-06T06:09:22.249Z,64.66
2022-10-06T06:11:53.107Z,64.86
2022-10-06T06:15:01.435Z,65.14
2022-10-06T06:17:50.983Z,65.25
2022-10-06T06:20:17.723Z,64.75
2022-10-06T06:22:44.637Z,65.30
2022-10-06T06:25:13.111Z,65.27
2022-10-06T06:27:42.378Z,65.25
2022-10-06T06:30:10.164Z,65.37
2022-10-06T06:32:37.157Z,65.66
2022-10-06T06:35:04.407Z,65.56
2022-10-06T06:37:32.277Z,65.49
2022-10-06T06:40:00.807Z,65.98
2022-10-06T06:42:27.959Z,65.89
2022-10-06T06:45:17.752Z,66.17
2022-10-06T06:48:04.335Z,66.34
2022-10-06T06:50:32.654Z,66.58
2022-10-06T06:53:02.582Z,67.12
2022-10-06T06:55:31.322Z,67.08
2022-10-06T06:57:59.615Z,66.91
2022-10-06T07:00:33.767Z,66.77
2022-10-06T07:03:03.074Z,67.66
2022-10-06T07:05:32.438Z,67.91
2022-10-06T07:07:59.678Z,67.65
2022-10-06T07:10:28.122Z,67.15
2022-10-06T07:12:55.246Z,67.40
2022-10-06T07:15:40.563Z,67.60
2022-10-06T07:18:29.020Z,67.35
2022-10-06T07:21:14.573Z,67.64
2022-10-06T07:24:00.360Z,67.39
2022-10-06T07:26:31.183Z,67.40
2022-10-06T07:29:01.607Z,67.67
2022-10-06T07:31:33.638Z,67.33
2022-10-06T07:34:02.632Z,67.10
2022-10-06T07:36:29.379Z,66.96
2022-10-06T07:38:56.277Z,66.96
2022-10-06T07:41:23.628Z,67.86
2022-10-06T07:43:56.938Z,66.44
2022-10-06T07:46:26.703Z,65.47
2022-10-06T07:48:58.616Z,65.23
2022-10-06T07:51:27.402Z,64.96
2022-10-06T07:53:56.277Z,64.80
2022-10-06T07:56:45.779Z,63.47
2022-10-06T07:59:12.973Z,63.52
2022-10-06T08:01:39.910Z,62.23
2022-10-06T08:04:07.081Z,62.18
2022-10-06T08:06:34.388Z,61.68
2022-10-06T08:09:01.570Z,62.31
2022-10-06T08:11:28.439Z,62.00
2022-10-06T08:13:55.103Z,60.73
2022-10-06T08:16:30.328Z,59.08
2022-10-06T08:18:59.855Z,57.69
2022-10-06T08:21:31.490Z,57.97
2022-10-06T08:23:58.885Z,56.69
2022-10-06T08:26:27.499Z,55.40
2022-10-06T08:28:57.718Z,53.23
2022-10-06T08:31:24.688Z,52.01
2022-10-06T08:33:56.847Z,50.86
2022-10-06T08:36:30.899Z,51.04
2022-10-06T08:38:58.688Z,49.56
2022-10-06T08:41:27.044Z,49.24
2022-10-06T08:44:21.054Z,47.09
2022-10-06T08:47:00.718Z,48.79
2022-10-06T08:49:35.862Z,47.23
2022-10-06T08:52:26.571Z,47.76
2022-10-06T08:55:31.682Z,47.14
2022-10-06T08:58:32.371Z,47.45
2022-10-06T09:01:08.083Z,47.19
2022-10-06T09:03:35.523Z,46.33
2022-10-06T09:06:12.423Z,47.79
2022-10-06T09:08:42.167Z,47.63
2022-10-06T09:11:17.035Z,46.33
2022-10-06T09:13:53.396Z,46.45
2022-10-06T09:16:30.579Z,47.06
2022-10-06T09:19:24.630Z,44.85
2022-10-06T09:21:53.334Z,45.51
2022-10-06T09:24:29.097Z,44.57
2022-10-06T09:26:59.228Z,43.68
2022-10-06T09:29:29.371Z,43.66
2022-10-06T09:31:56.080Z,42.46
2022-10-06T09:34:46.189Z,44.08
2022-10-06T09:37:13.885Z,44.32
2022-10-06T09:39:43.009Z,44.70
2022-10-06T09:42:26.007Z,44.13
2022-10-06T09:45:08.181Z,44.23
2022-10-06T09:47:45.786Z,44.00
2022-10-06T09:50:20.489Z,43.81
2022-10-06T09:53:00.772Z,43.29
2022-10-06T09:55:30.165Z,44.02
2022-10-06T09:57:57.915Z,43.21
2022-10-06T10:00:33.204Z,40.74
2022-10-06T10:03:03.197Z,39.87
2022-10-06T10:05:33.075Z,38.17
2022-10-06T10:08:27.667Z,38.72
2022-10-06T10:11:33.001Z,40.65
2022-10-06T10:14:00.545Z,37.82
2022-10-06T10:16:35.193Z,38.18
2022-10-06T10:19:04.279Z,37.96
2022-10-06T10:21:35.640Z,37.45
2022-10-06T10:24:07.636Z,36.07
2022-10-06T10:27:04.326Z,36.93
2022-10-06T10:29:59.494Z,35.17
2022-10-06T10:32:38.517Z,34.05
2022-10-06T10:35:21.850Z,34.52
2022-10-06T10:38:04.165Z,35.25
2022-10-06T10:40:43.082Z,34.27
2022-10-06T10:43:43.203Z,33.59
2022-10-06T10:46:11.625Z,32.43
2022-10-06T10:48:43.832Z,33.81
2022-10-06T10:51:19.787Z,32.46
2022-10-06T10:53:59.730Z,32.99
2022-10-06T10:56:27.538Z,33.11
2022-10-06T10:58:57.308Z,34.63
2022-10-06T11:01:36.382Z,33.72
2022-10-06T11:04:03.287Z,34.59
2022-10-06T11:06:40.794Z,33.16
2022-10-06T11:09:24.111Z,35.04
2022-10-06T11:12:14.256Z,35.34
2022-10-06T11:15:08.877Z,35.29
2022-10-06T11:17:44.667Z,34.09
2022-10-06T11:20:40.147Z,34.08
2022-10-06T11:23:25.532Z,35.39
2022-10-06T11:26:27.101Z,34.08
2022-10-06T11:29:16.315Z,34.03
2022-10-06T11:32:01.429Z,35.23
2022-10-06T11:34:28.259Z,36.09
2022-10-06T11:37:23.369Z,35.97
2022-10-06T11:40:06.246Z,36.22
2022-10-06T11:42:44.024Z,36.95
2022-10-06T11:45:14.856Z,37.28
2022-10-06T11:48:24.582Z,37.06
2022-10-06T11:50:55.395Z,37.27
2022-10-06T11:53:37.270Z,37.84
2022-10-06T11:56:19.502Z,38.02
2022-10-06T11:58:52.242Z,39.67
2022-10-06T12:01:28.061Z,39.98
2022-10-06T12:04:10.143Z,40.13
2022-10-06T12:06:42.912Z,41.16
2022-10-06T12:09:24.975Z,40.30
2022-10-06T12:12:14.888Z,40.32
2022-10-06T12:17:51.974Z,41.06
2022-10-06T12:20:37.916Z,40.50
2022-10-06T12:23:16.272Z,40.93
2022-10-06T12:26:03.305Z,40.32
2022-10-06T12:28:49.237Z,40.92
2022-10-06T12:31:22.025Z,41.28
2022-10-06T12:33:48.932Z,40.00
2022-10-06T12:36:17.785Z,40.47
2022-10-06T12:39:01.571Z,41.72
2022-10-06T12:42:03.303Z,41.33
2022-10-06T12:44:41.127Z,40.08
2022-10-06T12:47:15.635Z,39.74
2022-10-06T12:49:46.521Z,39.80
2022-10-06T12:52:20.469Z,39.83
2022-10-06T12:55:16.455Z,40.21
2022-10-06T12:57:48.195Z,40.13
2022-10-06T13:00:36.178Z,39.68
2022-10-06T13:03:06.278Z,40.79
2022-10-06T13:05:36.690Z,40.47
2022-10-06T13:08:18.351Z,38.22
2022-10-06T13:10:45.029Z,39.64
2022-10-06T13:13:24.523Z,39.49
2022-10-06T13:15:55.870Z,38.92
2022-10-06T13:18:23.282Z,39.59
2022-10-06T13:20:53.966Z,40.42
2022-10-06T13:23:31.654Z,40.18
2022-10-06T13:26:01.180Z,40.44
2022-10-06T13:28:36.998Z,40.20
2022-10-06T13:31:26.899Z,39.80
2022-10-06T13:34:02.904Z,40.19
2022-10-06T13:36:31.047Z,40.24
2022-10-06T13:38:58.397Z,38.80
2022-10-06T13:41:30.714Z,40.50
2022-10-06T13:44:03.807Z,39.68
2022-10-06T13:46:32.492Z,38.98
2022-10-06T13:49:03.572Z,39.15
2022-10-06T13:51:32.433Z,40.04
2022-10-06T13:54:01.368Z,39.76
2022-10-06T13:58:55.785Z,40.34
2022-10-06T14:01:30.228Z,38.95
2022-10-06T14:04:19.243Z,39.70
2022-10-06T14:06:51.502Z,39.62
2022-10-06T14:09:22.820Z,39.41
2022-10-06T14:11:49.778Z,39.71
2022-10-06T14:14:18.227Z,39.43
2022-10-06T14:16:50.922Z,40.41
2022-10-06T14:19:36.049Z,40.18
2022-10-06T14:22:04.783Z,39.37
2022-10-06T14:24:34.346Z,39.53
2022-10-06T14:27:02.735Z,40.53
2022-10-06T14:29:29.583Z,40.98
2022-10-06T14:31:56.325Z,40.84
2022-10-06T14:34:23.110Z,40.95
2022-10-06T14:36:55.382Z,41.86
2022-10-06T14:39:22.371Z,41.32
2022-10-06T14:41:49.177Z,41.00
2022-10-06T14:44:16.369Z,42.23
2022-10-06T14:46:47.126Z,41.11
2022-10-06T14:49:14.167Z,41.17
2022-10-06T14:51:42.167Z,42.60
2022-10-06T14:54:10.331Z,42.83
2022-10-06T14:56:38.544Z,42.17
2022-10-06T14:59:07.076Z,42.89
2022-10-06T15:01:36.114Z,43.71
2022-10-06T15:04:08.582Z,42.07
2022-10-06T15:06:53.969Z,41.83
2022-10-06T15:09:20.676Z,42.67
2022-10-06T15:11:48.434Z,43.09
2022-10-06T15:14:15.479Z,44.04
2022-10-06T15:16:43.980Z,42.97
2022-10-06T15:19:11.951Z,43.76
2022-10-06T15:21:45.584Z,42.91
2022-10-06T15:24:14.939Z,43.84
2022-10-06T15:27:00.807Z,43.95
2022-10-06T15:29:27.676Z,45.28
2022-10-06T15:31:55.377Z,44.55
2022-10-06T15:34:27.611Z,43.80
2022-10-06T15:36:55.970Z,44.85
2022-10-06T15:39:28.215Z,45.01
2022-10-06T15:41:55.016Z,45.49
2022-10-06T15:44:21.851Z,46.29
2022-10-06T15:46:53.876Z,46.18
2022-10-06T15:49:24.953Z,47.58
2022-10-06T15:51:54.286Z,46.32
2022-10-06T15:54:25.983Z,46.28
2022-10-06T15:56:54.308Z,45.37
2022-10-06T15:59:24.133Z,46.32
2022-10-06T16:01:52.476Z,47.35
2022-10-06T16:04:25.949Z,47.69
2022-10-06T16:06:56.379Z,48.43
2022-10-06T16:09:26.190Z,48.89
2022-10-06T16:11:53.798Z,48.93
2022-10-06T16:14:21.114Z,49.28
2022-10-06T16:16:48.442Z,49.74
2022-10-06T16:19:16.149Z,49.90
2022-10-06T16:21:43.108Z,50.31
2022-10-06T16:24:09.907Z,50.56
2022-10-06T16:26:36.653Z,50.87
2022-10-06T16:29:04.041Z,51.16
2022-10-06T16:31:30.894Z,51.41
2022-10-06T16:33:58.132Z,51.38
2022-10-06T16:36:25.021Z,52.53
2022-10-06T16:38:53.222Z,52.03
2022-10-06T16:41:20.689Z,51.76
2022-10-06T16:43:48.965Z,51.99
2022-10-06T16:46:22.730Z,52.83
2022-10-06T16:48:52.246Z,53.12
2022-10-06T16:51:28.166Z,53.12
2022-10-06T16:53:58.602Z,53.92
2022-10-06T16:56:45.370Z,53.64
2022-10-06T16:59:19.927Z,54.38
2022-10-06T17:01:47.697Z,54.44
2022-10-06T17:04:25.070Z,54.49
2022-10-06T17:06:54.348Z,54.57
2022-10-06T17:09:23.160Z,54.97
2022-10-06T17:11:55.825Z,55.18
2022-10-06T17:14:23.965Z,55.13
2022-10-06T17:16:53.581Z,55.13
2022-10-06T17:19:22.516Z,55.23
2022-10-06T17:21:54.113Z,55.99
2022-10-06T17:24:25.713Z,55.99
2022-10-06T17:26:52.918Z,56.15
2022-10-06T17:29:21.834Z,56.15
2022-10-06T17:31:50.896Z,56.84
2022-10-06T17:34:21.982Z,56.47
2022-10-06T17:36:51.411Z,56.60
2022-10-06T17:39:20.711Z,57.26
2022-10-06T17:41:50.910Z,56.93
2022-10-06T17:44:23.732Z,57.25
2022-10-06T17:46:53.999Z,57.43
2022-10-06T17:49:21.883Z,57.99
2022-10-06T17:51:49.720Z,58.49
2022-10-06T17:54:20.113Z,58.29
2022-10-06T17:56:52.209Z,58.30
2022-10-06T17:59:21.057Z,58.77
2022-10-06T18:01:48.506Z,59.12
2022-10-06T18:04:16.693Z,59.07
2022-10-06T18:06:44.859Z,59.09
2022-10-06T18:09:12.337Z,59.34
2022-10-06T18:11:43.638Z,59.56
2022-10-06T18:14:16.428Z,60.15
2022-10-06T18:16:52.117Z,59.91
2022-10-06T18:19:28.380Z,60.13
2022-10-06T18:21:56.815Z,60.23
2022-10-06T18:24:25.668Z,60.24
2022-10-06T18:26:54.276Z,60.17
2022-10-06T18:29:23.709Z,60.91
2022-10-06T18:31:52.368Z,61.03
2022-10-06T18:37:07.395Z,61.40
2022-10-06T18:39:34.229Z,61.78
2022-10-06T18:42:03.816Z,61.87
2022-10-06T18:44:49.169Z,61.92
2022-10-06T18:47:34.571Z,62.04
2022-10-06T18:50:01.819Z,61.92
2022-10-06T18:52:28.701Z,62.11
2022-10-06T18:54:55.562Z,62.35
2022-10-06T18:57:27.229Z,62.03
2022-10-06T18:59:55.497Z,62.48
2022-10-06T19:02:22.595Z,62.53
2022-10-06T19:04:49.583Z,62.31
2022-10-06T19:07:16.246Z,62.79
2022-10-06T19:09:46.601Z,62.36
2022-10-06T19:12:16.549Z,62.46
2022-10-06T19:14:47.799Z,62.91
2022-10-06T19:17:15.267Z,62.92
2022-10-06T19:19:55.395Z,63.11
2022-10-06T19:22:24.866Z,63.04
2022-10-06T19:24:52.409Z,63.29
2022-10-06T19:27:24.363Z,63.41
2022-10-06T19:29:54.658Z,63.65
2022-10-06T19:32:24.932Z,63.46
2022-10-06T19:34:52.402Z,63.59
2022-10-06T19:37:19.612Z,63.31
2022-10-06T19:39:48.227Z,63.52
2022-10-06T19:42:35.524Z,63.45
2022-10-06T19:45:02.628Z,63.58
2022-10-06T19:47:30.369Z,63.79
2022-10-06T19:50:02.111Z,63.72
2022-10-06T19:52:31.489Z,63.67
2022-10-06T19:54:58.484Z,63.92
2022-10-06T19:57:28.698Z,63.87
2022-10-06T19:59:55.723Z,63.92
2022-10-06T20:02:22.949Z,64.09
2022-10-06T20:04:50.677Z,64.13
2022-10-06T20:07:21.670Z,64.49
2022-10-06T20:09:48.750Z,64.53
2022-10-06T20:12:19.704Z,64.76
2022-10-06T20:14:47.711Z,64.63
2022-10-06T20:17:14.739Z,64.73
2022-10-06T20:19:41.674Z,64.87
2022-10-06T20:22:08.571Z,64.88
2022-10-06T20:24:36.022Z,65.07
2022-10-06T20:27:02.915Z,65.01
2022-10-06T20:29:31.685Z,64.94
2022-10-06T20:31:59.594Z,64.82
2022-10-06T20:34:32.414Z,65.05
2022-10-06T20:37:03.232Z,64.80
2022-10-06T20:39:50.746Z,64.87
2022-10-06T20:42:18.672Z,64.88
2022-10-06T20:44:45.887Z,65.07
2022-10-06T20:47:13.492Z,64.77
2022-10-06T20:49:42.154Z,65.07
2022-10-06T20:52:10.090Z,65.15
2022-10-06T20:54:37.560Z,65.29
2022-10-06T20:57:05.713Z,65.49
2022-10-06T20:59:33.313Z,65.17
2022-10-06T21:02:00.505Z,65.38
2022-10-06T21:04:27.831Z,65.43
2022-10-06T21:06:55.027Z,65.54
2022-10-06T21:09:21.904Z,65.62
2022-10-06T21:11:49.582Z,65.57
2022-10-06T21:14:16.662Z,65.91
2022-10-06T21:16:45.332Z,65.92
2022-10-06T21:19:14.749Z,65.55
2022-10-06T21:21:43.045Z,65.83
2022-10-06T21:24:10.110Z,65.84
2022-10-06T21:26:38.929Z,65.90
2022-10-06T21:29:05.743Z,65.78
2022-10-06T21:31:33.402Z,66.20
2022-10-06T21:34:01.578Z,66.01
2022-10-06T21:36:31.843Z,65.73
2022-10-06T21:39:00.233Z,65.88
2022-10-06T21:41:32.639Z,66.11
2022-10-06T21:44:09.432Z,65.88
2022-10-06T21:46:50.306Z,66.10
2022-10-06T21:49:19.382Z,66.55
2022-10-06T21:51:48.073Z,66.59
2022-10-06T21:54:15.086Z,66.40
2022-10-06T21:56:42.268Z,66.36
2022-10-06T21:59:09.184Z,66.43
2022-10-06T22:01:38.617Z,66.19
2022-10-06T22:04:05.933Z,66.48
2022-10-06T22:06:34.553Z,66.35
2022-10-06T22:09:02.012Z,66.51
2022-10-06T22:11:31.671Z,66.36
2022-10-06T22:14:00.783Z,66.41
2022-10-06T22:16:29.588Z,66.78
2022-10-06T22:18:56.474Z,66.59
2022-10-06T22:21:28.802Z,66.86
2022-10-06T22:24:06.567Z,66.96
2022-10-06T22:26:35.033Z,66.40
2022-10-06T22:29:01.835Z,66.20
2022-10-06T22:31:28.778Z,66.13
2022-10-06T22:33:57.966Z,66.25
2022-10-06T22:36:25.853Z,66.14
2022-10-06T22:38:53.251Z,66.11
2022-10-06T22:41:20.300Z,66.54
2022-10-06T22:43:47.163Z,66.51
2022-10-06T22:46:14.298Z,66.42
2022-10-06T22:48:41.824Z,66.28
2022-10-06T22:51:08.691Z,66.50
2022-10-06T22:53:35.723Z,66.55
2022-10-06T22:56:03.986Z,66.37
2022-10-06T22:58:31.337Z,66.50
2022-10-06T23:00:58.263Z,66.86
2022-10-06T23:03:25.441Z,67.05
2022-10-06T23:06:00.105Z,66.81
2022-10-06T23:08:32.723Z,66.72
2022-10-06T23:11:09.717Z,66.66
2022-10-06T23:13:36.834Z,66.71
2022-10-06T23:16:07.583Z,66.54
2022-10-06T23:18:37.140Z,66.64
2022-10-06T23:21:08.951Z,66.38
2022-10-06T23:23:36.462Z,66.44
2022-10-06T23:26:08.211Z,66.66
2022-10-06T23:28:35.156Z,66.65
2022-10-06T23:31:04.398Z,66.87
2022-10-06T23:33:31.960Z,66.82
2022-10-06T23:36:00.240Z,67.10
2022-10-06T23:38:27.455Z,67.20
2022-10-06T23:40:54.541Z,67.00
2022-10-06T23:43:22.648Z,66.88
2022-10-06T23:45:49.547Z,67.02
2022-10-06T23:48:16.765Z,66.79
2022-10-06T23:50:43.562Z,66.75
2022-10-06T23:53:10.336Z,66.75
2022-10-06T23:55:37.160Z,66.90
2022-10-06T23:58:03.932Z,67.06
